Eastwood, United Kingdom
Current Conditions -  °F | °C
As of 12:50 AM on Tuesday 23 Dec 2014 (Local Time) from EGNX Reporting Station
Broken Clouds Broken Clouds  
Wind Chill: 12°   Ceiling: 2500
Heat Index: 12°   Visibility: 6mi
Dew Point:   Wind: 22mph
Humidity: 77%   Direction: 230°SW
Pressure: 29.91"   Gusts: NA
Location:  53°N, 1.3°W
Report Text: EGNX 230050Z 23019KT 9999 SCT022 BKN025 12/08 Q1013
Loading
Personal Weather Stations






























Interactive Weather Map New forecast layout! Learn more

10-Day Weather Forecast

Advertisements
Track Severe Weather on mobile